sensor_id;sensor_type;location;lat;lon;timestamp;pressure;altitude;pressure_sealevel;temperature;humidity
74075;BME280;62428;51.412;5.432;2023-04-10T00:02:11;101973.34;;;9.33;66.48
74075;BME280;62428;51.412;5.432;2023-04-10T00:04:37;101968.22;;;9.32;66.28
74075;BME280;62428;51.412;5.432;2023-04-10T00:07:02;101958.00;;;9.29;66.84
74075;BME280;62428;51.412;5.432;2023-04-10T00:09:28;101948.34;;;9.28;66.78
74075;BME280;62428;51.412;5.432;2023-04-10T00:11:53;101944.84;;;9.27;66.17
74075;BME280;62428;51.412;5.432;2023-04-10T00:14:20;101941.34;;;9.27;66.50
74075;BME280;62428;51.412;5.432;2023-04-10T00:16:48;101940.56;;;9.26;66.53
74075;BME280;62428;51.412;5.432;2023-04-10T00:19:13;101934.66;;;9.24;66.74
74075;BME280;62428;51.412;5.432;2023-04-10T00:21:39;101932.22;;;9.22;66.70
74075;BME280;62428;51.412;5.432;2023-04-10T00:24:05;101920.69;;;9.22;67.43
74075;BME280;62428;51.412;5.432;2023-04-10T00:26:30;101912.34;;;9.18;67.72
74075;BME280;62428;51.412;5.432;2023-04-10T00:28:55;101912.91;;;9.20;67.52
74075;BME280;62428;51.412;5.432;2023-04-10T00:31:21;101913.41;;;9.17;68.05
74075;BME280;62428;51.412;5.432;2023-04-10T00:33:46;101912.84;;;9.15;68.04
74075;BME280;62428;51.412;5.432;2023-04-10T00:36:12;101914.97;;;9.13;66.83
74075;BME280;62428;51.412;5.432;2023-04-10T00:38:37;101913.34;;;9.12;67.47
74075;BME280;62428;51.412;5.432;2023-04-10T00:41:02;101914.69;;;9.10;67.81
74075;BME280;62428;51.412;5.432;2023-04-10T00:43:28;101908.78;;;9.08;68.03
74075;BME280;62428;51.412;5.432;2023-04-10T00:45:53;101902.03;;;9.05;68.16
74075;BME280;62428;51.412;5.432;2023-04-10T00:48:19;101902.31;;;9.03;68.35
74075;BME280;62428;51.412;5.432;2023-04-10T00:50:45;101897.44;;;9.00;68.32
74075;BME280;62428;51.412;5.432;2023-04-10T00:53:11;101899.56;;;8.98;68.10
74075;BME280;62428;51.412;5.432;2023-04-10T00:55:36;101897.09;;;8.92;68.37
74075;BME280;62428;51.412;5.432;2023-04-10T00:58:02;101895.19;;;8.87;68.17
74075;BME280;62428;51.412;5.432;2023-04-10T01:00:27;101888.69;;;8.83;69.29
74075;BME280;62428;51.412;5.432;2023-04-10T01:02:53;101890.03;;;8.80;69.38
74075;BME280;62428;51.412;5.432;2023-04-10T01:05:19;101896.13;;;8.76;69.18
74075;BME280;62428;51.412;5.432;2023-04-10T01:13:08;101890.16;;;8.63;70.13
74075;BME280;62428;51.412;5.432;2023-04-10T01:15:51;101888.22;;;8.59;70.57
74075;BME280;62428;51.412;5.432;2023-04-10T01:18:23;101889.00;;;8.59;71.12
74075;BME280;62428;51.412;5.432;2023-04-10T01:20:50;101882.28;;;8.57;71.52
74075;BME280;62428;51.412;5.432;2023-04-10T01:26:35;101885.47;;;8.54;70.70
74075;BME280;62428;51.412;5.432;2023-04-10T01:29:07;101886.25;;;8.49;71.34
74075;BME280;62428;51.412;5.432;2023-04-10T01:31:40;101873.59;;;8.44;71.77
74075;BME280;62428;51.412;5.432;2023-04-10T01:34:14;101878.59;;;8.41;71.35
74075;BME280;62428;51.412;5.432;2023-04-10T01:36:54;101877.00;;;8.40;71.42
74075;BME280;62428;51.412;5.432;2023-04-10T01:39:21;101874.03;;;8.36;71.75
74075;BME280;62428;51.412;5.432;2023-04-10T01:41:50;101868.91;;;8.35;72.52
74075;BME280;62428;51.412;5.432;2023-04-10T01:44:23;101873.97;;;8.31;72.39
74075;BME280;62428;51.412;5.432;2023-04-10T01:46:53;101866.41;;;8.28;72.71
74075;BME280;62428;51.412;5.432;2023-04-10T01:49:20;101866.09;;;8.24;72.70
74075;BME280;62428;51.412;5.432;2023-04-10T01:51:47;101856.72;;;8.22;72.38
74075;BME280;62428;51.412;5.432;2023-04-10T01:54:13;101861.53;;;8.20;72.42
74075;BME280;62428;51.412;5.432;2023-04-10T01:56:40;101852.34;;;8.16;72.70
74075;BME280;62428;51.412;5.432;2023-04-10T01:59:06;101846.69;;;8.12;72.89
74075;BME280;62428;51.412;5.432;2023-04-10T02:01:32;101850.69;;;8.09;73.24
74075;BME280;62428;51.412;5.432;2023-04-10T02:03:58;101843.16;;;8.06;73.20
74075;BME280;62428;51.412;5.432;2023-04-10T02:11:54;101827.00;;;7.96;71.94
74075;BME280;62428;51.412;5.432;2023-04-10T02:14:23;101823.75;;;7.94;71.47
74075;BME280;62428;51.412;5.432;2023-04-10T02:16:53;101816.53;;;7.95;73.18
74075;BME280;62428;51.412;5.432;2023-04-10T02:19:21;101819.44;;;7.93;73.28
74075;BME280;62428;51.412;5.432;2023-04-10T02:21:48;101814.91;;;7.94;72.26
74075;BME280;62428;51.412;5.432;2023-04-10T02:24:14;101815.41;;;7.91;71.83
74075;BME280;62428;51.412;5.432;2023-04-10T02:26:46;101806.56;;;7.90;72.12
74075;BME280;62428;51.412;5.432;2023-04-10T02:29:12;101809.78;;;7.92;72.11
74075;BME280;62428;51.412;5.432;2023-04-10T02:31:39;101807.94;;;7.93;73.03
74075;BME280;62428;51.412;5.432;2023-04-10T02:34:05;101801.75;;;7.92;71.16
74075;BME280;62428;51.412;5.432;2023-04-10T02:36:31;101806.88;;;7.94;70.95
74075;BME280;62428;51.412;5.432;2023-04-10T02:38:57;101805.81;;;7.95;72.58
74075;BME280;62428;51.412;5.432;2023-04-10T02:41:22;101813.84;;;7.95;71.17
74075;BME280;62428;51.412;5.432;2023-04-10T02:43:48;101797.78;;;7.95;71.54
74075;BME280;62428;51.412;5.432;2023-04-10T02:46:13;101805.81;;;7.95;70.57
74075;BME280;62428;51.412;5.432;2023-04-10T02:48:39;101809.53;;;7.94;70.87
74075;BME280;62428;51.412;5.432;2023-04-10T02:51:05;101803.63;;;7.92;72.58
74075;BME280;62428;51.412;5.432;2023-04-10T02:53:32;101808.19;;;7.91;72.13
74075;BME280;62428;51.412;5.432;2023-04-10T02:55:57;101803.63;;;7.92;71.24
74075;BME280;62428;51.412;5.432;2023-04-10T02:58:23;101809.78;;;7.92;71.69
74075;BME280;62428;51.412;5.432;2023-04-10T03:00:48;101806.31;;;7.92;71.22
74075;BME280;62428;51.412;5.432;2023-04-10T03:03:15;101807.88;;;7.87;71.71
74075;BME280;62428;51.412;5.432;2023-04-10T03:05:40;101800.59;;;7.83;70.84
74075;BME280;62428;51.412;5.432;2023-04-10T03:08:05;101801.09;;;7.80;70.49
74075;BME280;62428;51.412;5.432;2023-04-10T03:10:31;101795.19;;;7.78;71.71
74075;BME280;62428;51.412;5.432;2023-04-10T03:12:56;101803.47;;;7.76;70.91
74075;BME280;62428;51.412;5.432;2023-04-10T03:15:21;101791.94;;;7.76;71.74
74075;BME280;62428;51.412;5.432;2023-04-10T03:17:47;101804.75;;;7.74;71.26
74075;BME280;62428;51.412;5.432;2023-04-10T03:20:12;101806.88;;;7.72;72.84
74075;BME280;62428;51.412;5.432;2023-04-10T03:22:37;101811.91;;;7.68;72.40
74075;BME280;62428;51.412;5.432;2023-04-10T03:25:04;101803.09;;;7.67;72.21
74075;BME280;62428;51.412;5.432;2023-04-10T03:27:29;101800.41;;;7.67;72.37
74075;BME280;62428;51.412;5.432;2023-04-10T03:29:57;101804.72;;;7.68;72.50
74075;BME280;62428;51.412;5.432;2023-04-10T03:32:22;101810.06;;;7.68;73.70
74075;BME280;62428;51.412;5.432;2023-04-10T03:34:48;101811.09;;;7.67;73.41
74075;BME280;62428;51.412;5.432;2023-04-10T03:37:13;101803.00;;;7.62;73.60
74075;BME280;62428;51.412;5.432;2023-04-10T03:39:39;101798.75;;;7.61;73.64
74075;BME280;62428;51.412;5.432;2023-04-10T03:42:04;101791.19;;;7.58;73.78
74075;BME280;62428;51.412;5.432;2023-04-10T03:44:29;101783.66;;;7.55;74.52
74075;BME280;62428;51.412;5.432;2023-04-10T03:46:55;101784.44;;;7.50;74.13
74075;BME280;62428;51.412;5.432;2023-04-10T03:49:20;101783.03;;;7.48;73.77
74075;BME280;62428;51.412;5.432;2023-04-10T03:51:45;101774.44;;;7.46;74.53
74075;BME280;62428;51.412;5.432;2023-04-10T03:54:11;101779.25;;;7.44;75.33
74075;BME280;62428;51.412;5.432;2023-04-10T03:56:36;101780.00;;;7.39;74.25
74075;BME280;62428;51.412;5.432;2023-04-10T03:59:01;101775.38;;;7.35;74.67
74075;BME280;62428;51.412;5.432;2023-04-10T04:01:27;101773.19;;;7.31;74.99
74075;BME280;62428;51.412;5.432;2023-04-10T04:03:52;101772.06;;;7.27;74.77
74075;BME280;62428;51.412;5.432;2023-04-10T04:06:17;101778.72;;;7.25;75.33
74075;BME280;62428;51.412;5.432;2023-04-10T04:08:42;101767.16;;;7.19;75.10
74075;BME280;62428;51.412;5.432;2023-04-10T04:11:08;101772.44;;;7.14;75.20
74075;BME280;62428;51.412;5.432;2023-04-10T04:13:33;101766.75;;;7.10;75.07
74075;BME280;62428;51.412;5.432;2023-04-10T04:15:58;101765.13;;;7.09;74.93
74075;BME280;62428;51.412;5.432;2023-04-10T04:18:24;101762.97;;;7.06;74.89
74075;BME280;62428;51.412;5.432;2023-04-10T04:20:49;101757.03;;;7.04;75.08
74075;BME280;62428;51.412;5.432;2023-04-10T04:23:15;101758.09;;;7.03;75.66
74075;BME280;62428;51.412;5.432;2023-04-10T04:25:41;101751.38;;;7.01;74.84
74075;BME280;62428;51.412;5.432;2023-04-10T04:28:07;101751.38;;;7.01;74.52
74075;BME280;62428;51.412;5.432;2023-04-10T04:30:35;101746.88;;;7.01;73.75
74075;BME280;62428;51.412;5.432;2023-04-10T04:33:00;101738.00;;;7.01;73.91
74075;BME280;62428;51.412;5.432;2023-04-10T04:35:25;101748.16;;;6.99;73.70
74075;BME280;62428;51.412;5.432;2023-04-10T04:37:50;101743.34;;;7.01;74.47
74075;BME280;62428;51.412;5.432;2023-04-10T04:40:16;101738.28;;;6.99;74.12
74075;BME280;62428;51.412;5.432;2023-04-10T04:42:41;101739.09;;;7.00;73.75
74075;BME280;62428;51.412;5.432;2023-04-10T04:45:07;101739.56;;;6.97;73.65
74075;BME280;62428;51.412;5.432;2023-04-10T04:47:32;101745.72;;;6.97;74.99
74075;BME280;62428;51.412;5.432;2023-04-10T04:49:58;101733.19;;;6.98;74.00
74075;BME280;62428;51.412;5.432;2023-04-10T04:52:23;101738.28;;;6.99;73.50
74075;BME280;62428;51.412;5.432;2023-04-10T04:54:49;101736.41;;;7.00;73.18
74075;BME280;62428;51.412;5.432;2023-04-10T04:57:14;101740.97;;;6.99;73.43
74075;BME280;62428;51.412;5.432;2023-04-10T04:59:40;101738.28;;;6.99;73.70
74075;BME280;62428;51.412;5.432;2023-04-10T05:02:05;101734.78;;;6.99;73.24
74075;BME280;62428;51.412;5.432;2023-04-10T05:04:31;101730.50;;;6.98;73.18
74075;BME280;62428;51.412;5.432;2023-04-10T05:06:56;101733.66;;;6.95;73.00
74075;BME280;62428;51.412;5.432;2023-04-10T05:09:21;101729.38;;;6.93;72.99
74075;BME280;62428;51.412;5.432;2023-04-10T05:11:47;101716.84;;;6.94;73.37
74075;BME280;62428;51.412;5.432;2023-04-10T05:14:12;101711.97;;;6.91;72.81
74075;BME280;62428;51.412;5.432;2023-04-10T05:16:37;101711.41;;;6.89;72.89
74075;BME280;62428;51.412;5.432;2023-04-10T05:19:02;101707.69;;;6.90;73.49
74075;BME280;62428;51.412;5.432;2023-04-10T05:21:28;101706.63;;;6.91;73.14
74075;BME280;62428;51.412;5.432;2023-04-10T05:23:53;101708.50;;;6.90;73.10
74075;BME280;62428;51.412;5.432;2023-04-10T05:26:18;101699.19;;;6.93;72.77
74075;BME280;62428;51.412;5.432;2023-04-10T05:28:44;101706.72;;;6.96;72.43
74075;BME280;62428;51.412;5.432;2023-04-10T05:31:09;101704.84;;;6.97;72.73
74075;BME280;62428;51.412;5.432;2023-04-10T05:33:35;101711.28;;;7.01;72.58
74075;BME280;62428;51.412;5.432;2023-04-10T05:36:01;101713.50;;;7.04;72.17
74075;BME280;62428;51.412;5.432;2023-04-10T05:38:26;101712.19;;;7.06;71.78
74075;BME280;62428;51.412;5.432;2023-04-10T05:40:51;101714.59;;;7.08;72.15
74075;BME280;62428;51.412;5.432;2023-04-10T05:43:17;101709.00;;;7.09;72.18
74075;BME280;62428;51.412;5.432;2023-04-10T05:45:43;101717.84;;;7.10;71.70
74075;BME280;62428;51.412;5.432;2023-04-10T05:48:09;101714.69;;;7.13;71.86
74075;BME280;62428;51.412;5.432;2023-04-10T05:50:34;101714.50;;;7.20;71.38
74075;BME280;62428;51.412;5.432;2023-04-10T05:53:00;101713.44;;;7.21;71.76
74075;BME280;62428;51.412;5.432;2023-04-10T05:55:25;101712.41;;;7.22;71.42
74075;BME280;62428;51.412;5.432;2023-04-10T05:57:51;101718.63;;;7.27;71.69
74075;BME280;62428;51.412;5.432;2023-04-10T06:00:16;101715.69;;;7.29;71.20
74075;BME280;62428;51.412;5.432;2023-04-10T06:02:42;101722.97;;;7.34;71.15
74075;BME280;62428;51.412;5.432;2023-04-10T06:05:07;101717.69;;;7.39;70.87
74075;BME280;62428;51.412;5.432;2023-04-10T06:07:33;101717.75;;;7.44;71.02
74075;BME280;62428;51.412;5.432;2023-04-10T06:09:58;101720.72;;;7.47;70.70
74075;BME280;62428;51.412;5.432;2023-04-10T06:12:23;101724.84;;;7.55;71.05
74075;BME280;62428;51.412;5.432;2023-04-10T06:14:49;101723.03;;;7.61;71.16
74075;BME280;62428;51.412;5.432;2023-04-10T06:17:14;101717.75;;;7.66;70.30
74075;BME280;62428;51.412;5.432;2023-04-10T06:19:39;101719.69;;;7.70;69.57
74075;BME280;62428;51.412;5.432;2023-04-10T06:22:05;101723.47;;;7.75;69.63
74075;BME280;62428;51.412;5.432;2023-04-10T06:24:30;101717.09;;;7.81;70.04
74075;BME280;62428;51.412;5.432;2023-04-10T06:26:56;101715.03;;;7.88;69.64
74075;BME280;62428;51.412;5.432;2023-04-10T06:29:22;101707.63;;;7.95;69.34
74075;BME280;62428;51.412;5.432;2023-04-10T06:31:47;101699.38;;;8.02;68.72
74075;BME280;62428;51.412;5.432;2023-04-10T06:34:12;101695.94;;;8.06;68.53
74075;BME280;62428;51.412;5.432;2023-04-10T06:36:38;101696.78;;;8.12;68.92
74075;BME280;62428;51.412;5.432;2023-04-10T06:39:03;101693.38;;;8.17;67.67
74075;BME280;62428;51.412;5.432;2023-04-10T06:41:28;101679.22;;;8.21;67.88
74075;BME280;62428;51.412;5.432;2023-04-10T06:43:54;101683.00;;;8.25;67.99
74075;BME280;62428;51.412;5.432;2023-04-10T06:46:19;101677.94;;;8.29;67.39
74075;BME280;62428;51.412;5.432;2023-04-10T06:48:45;101676.38;;;8.33;67.72
74075;BME280;62428;51.412;5.432;2023-04-10T06:51:10;101672.94;;;8.38;66.66
74075;BME280;62428;51.412;5.432;2023-04-10T06:53:35;101661.47;;;8.42;66.51
74075;BME280;62428;51.412;5.432;2023-04-10T06:56:01;101662.56;;;8.46;66.78
74075;BME280;62428;51.412;5.432;2023-04-10T06:58:26;101658.06;;;8.52;66.31
74075;BME280;62428;51.412;5.432;2023-04-10T07:00:52;101659.72;;;8.58;66.92
74075;BME280;62428;51.412;5.432;2023-04-10T07:03:18;101638.31;;;8.63;66.81
74075;BME280;62428;51.412;5.432;2023-04-10T07:05:43;101635.66;;;8.69;65.92
74075;BME280;62428;51.412;5.432;2023-04-10T07:08:08;101640.50;;;8.72;66.29
74075;BME280;62428;51.412;5.432;2023-04-10T07:10:34;101637.84;;;8.77;65.51
74075;BME280;62428;51.412;5.432;2023-04-10T07:13:00;101632.78;;;8.80;65.93
74075;BME280;62428;51.412;5.432;2023-04-10T07:15:26;101628.50;;;8.84;65.55
74075;BME280;62428;51.412;5.432;2023-04-10T07:17:51;101635.25;;;8.87;65.57
74075;BME280;62428;51.412;5.432;2023-04-10T07:20:16;101629.09;;;8.92;65.26
74075;BME280;62428;51.412;5.432;2023-04-10T07:22:42;101618.91;;;8.94;65.15
74075;BME280;62428;51.412;5.432;2023-04-10T07:25:07;101620.00;;;8.98;65.12
74075;BME280;62428;51.412;5.432;2023-04-10T07:27:33;101613.06;;;9.02;65.48
74075;BME280;62428;51.412;5.432;2023-04-10T07:29:58;101605.03;;;9.07;64.97
74075;BME280;62428;51.412;5.432;2023-04-10T07:32:24;101605.03;;;9.12;64.78
74075;BME280;62428;51.412;5.432;2023-04-10T07:34:49;101610.16;;;9.19;65.55
74075;BME280;62428;51.412;5.432;2023-04-10T07:37:15;101604.56;;;9.26;63.57
74075;BME280;62428;51.412;5.432;2023-04-10T07:39:41;101602.44;;;9.33;64.37
74075;BME280;62428;51.412;5.432;2023-04-10T07:42:09;101602.44;;;9.43;64.49
74075;BME280;62428;51.412;5.432;2023-04-10T07:44:35;101600.88;;;9.57;64.74
74075;BME280;62428;51.412;5.432;2023-04-10T07:47:00;101594.72;;;9.67;62.06
74075;BME280;62428;51.412;5.432;2023-04-10T07:49:26;101588.28;;;9.84;63.42
74075;BME280;62428;51.412;5.432;2023-04-10T07:51:52;101582.63;;;10.06;63.52
74075;BME280;62428;51.412;5.432;2023-04-10T07:54:17;101578.09;;;10.32;62.19
74075;BME280;62428;51.412;5.432;2023-04-10T07:56:42;101571.28;;;10.60;60.50
74075;BME280;62428;51.412;5.432;2023-04-10T07:59:08;101563.44;;;10.79;59.29
74075;BME280;62428;51.412;5.432;2023-04-10T08:01:33;101561.44;;;11.00;59.11
74075;BME280;62428;51.412;5.432;2023-04-10T08:03:58;101563.22;;;11.20;58.45
74075;BME280;62428;51.412;5.432;2023-04-10T08:06:24;101554.00;;;11.31;57.86
74075;BME280;62428;51.412;5.432;2023-04-10T08:08:50;101558.44;;;11.51;58.17
74075;BME280;62428;51.412;5.432;2023-04-10T08:11:27;101538.94;;;11.70;58.00
74075;BME280;62428;51.412;5.432;2023-04-10T08:13:58;101539.09;;;11.84;57.55
74075;BME280;62428;51.412;5.432;2023-04-10T08:16:27;101545.78;;;11.91;55.34
74075;BME280;62428;51.412;5.432;2023-04-10T08:18:54;101541.50;;;11.85;55.98
74075;BME280;62428;51.412;5.432;2023-04-10T08:21:27;101534.34;;;11.76;57.54
74075;BME280;62428;51.412;5.432;2023-04-10T08:23:53;101540.06;;;11.64;56.51
74075;BME280;62428;51.412;5.432;2023-04-10T08:26:18;101543.38;;;11.56;58.36
74075;BME280;62428;51.412;5.432;2023-04-10T08:28:47;101543.69;;;11.49;57.45
74075;BME280;62428;51.412;5.432;2023-04-10T08:31:14;101543.44;;;11.45;57.75
74075;BME280;62428;51.412;5.432;2023-04-10T08:33:39;101542.13;;;11.43;58.38
74075;BME280;62428;51.412;5.432;2023-04-10T08:36:07;101538.06;;;11.45;59.83
74075;BME280;62428;51.412;5.432;2023-04-10T08:38:32;101537.50;;;11.48;59.51
74075;BME280;62428;51.412;5.432;2023-04-10T08:40:57;101533.69;;;11.54;58.75
74075;BME280;62428;51.412;5.432;2023-04-10T08:43:23;101521.25;;;11.59;58.56
74075;BME280;62428;51.412;5.432;2023-04-10T08:45:50;101519.09;;;11.61;58.97
74075;BME280;62428;51.412;5.432;2023-04-10T08:48:17;101519.91;;;11.61;58.88
74075;BME280;62428;51.412;5.432;2023-04-10T08:50:44;101521.50;;;11.62;58.26
74075;BME280;62428;51.412;5.432;2023-04-10T08:53:11;101523.91;;;11.64;59.29
74075;BME280;62428;51.412;5.432;2023-04-10T08:55:38;101524.16;;;11.67;58.30
74075;BME280;62428;51.412;5.432;2023-04-10T08:58:05;101530.06;;;11.69;58.74
74075;BME280;62428;51.412;5.432;2023-04-10T09:00:34;101511.47;;;11.73;59.80
74075;BME280;62428;51.412;5.432;2023-04-10T09:03:03;101522.19;;;11.78;60.79
74075;BME280;62428;51.412;5.432;2023-04-10T09:05:29;101525.91;;;11.82;59.34
74075;BME280;62428;51.412;5.432;2023-04-10T09:07:55;101522.09;;;11.88;57.98
74075;BME280;62428;51.412;5.432;2023-04-10T09:10:21;101512.41;;;11.92;58.48
74075;BME280;62428;51.412;5.432;2023-04-10T09:12:47;101517.16;;;12.01;58.80
74075;BME280;62428;51.412;5.432;2023-04-10T09:15:13;101518.22;;;12.05;58.80
74075;BME280;62428;51.412;5.432;2023-04-10T09:17:55;101510.28;;;12.14;60.29
74075;BME280;62428;51.412;5.432;2023-04-10T09:20:22;101510.75;;;12.21;58.54
74075;BME280;62428;51.412;5.432;2023-04-10T09:22:48;101506.66;;;12.28;58.41
74075;BME280;62428;51.412;5.432;2023-04-10T09:25:33;101507.09;;;12.36;58.94
74075;BME280;62428;51.412;5.432;2023-04-10T09:28:03;101502.47;;;12.41;58.46
74075;BME280;62428;51.412;5.432;2023-04-10T09:30:36;101494.59;;;12.45;58.57
74075;BME280;62428;51.412;5.432;2023-04-10T09:35:48;101486.66;;;12.54;57.99
74075;BME280;62428;51.412;5.432;2023-04-10T09:38:15;101474.53;;;12.56;58.22
74075;BME280;62428;51.412;5.432;2023-04-10T09:40:41;101474.75;;;12.60;58.40
74075;BME280;62428;51.412;5.432;2023-04-10T09:43:20;101465.84;;;12.59;57.77
74075;BME280;62428;51.412;5.432;2023-04-10T09:45:51;101457.75;;;12.59;57.46
74075;BME280;62428;51.412;5.432;2023-04-10T09:48:17;101446.97;;;12.59;57.21
74075;BME280;62428;51.412;5.432;2023-04-10T09:50:43;101437.00;;;12.60;57.75
74075;BME280;62428;51.412;5.432;2023-04-10T09:53:13;101449.09;;;12.62;57.20
74075;BME280;62428;51.412;5.432;2023-04-10T09:55:40;101440.72;;;12.64;57.43
74075;BME280;62428;51.412;5.432;2023-04-10T09:58:07;101435.03;;;12.65;56.67
74075;BME280;62428;51.412;5.432;2023-04-10T10:00:47;101442.53;;;12.68;56.16
74075;BME280;62428;51.412;5.432;2023-04-10T10:03:17;101440.28;;;12.76;57.07
74075;BME280;62428;51.412;5.432;2023-04-10T10:05:44;101441.53;;;12.83;58.11
74075;BME280;62428;51.412;5.432;2023-04-10T10:08:12;101450.28;;;12.94;59.62
74075;BME280;62428;51.412;5.432;2023-04-10T10:10:50;101436.91;;;13.03;58.27
74075;BME280;62428;51.412;5.432;2023-04-10T10:16:10;101429.38;;;13.19;57.72
74075;BME280;62428;51.412;5.432;2023-04-10T10:18:43;101409.31;;;13.25;55.59
74075;BME280;62428;51.412;5.432;2023-04-10T10:21:12;101406.47;;;13.35;56.25
74075;BME280;62428;51.412;5.432;2023-04-10T10:23:39;101409.94;;;13.55;58.36
74075;BME280;62428;51.412;5.432;2023-04-10T10:26:05;101410.63;;;13.74;56.81
74075;BME280;62428;51.412;5.432;2023-04-10T10:28:32;101410.56;;;13.93;57.25
74075;BME280;62428;51.412;5.432;2023-04-10T10:30:59;101409.06;;;14.15;53.52
74075;BME280;62428;51.412;5.432;2023-04-10T10:33:25;101403.03;;;14.32;54.53
74075;BME280;62428;51.412;5.432;2023-04-10T10:35:57;101406.88;;;14.53;54.92
74075;BME280;62428;51.412;5.432;2023-04-10T10:38:24;101393.34;;;14.67;51.55
74075;BME280;62428;51.412;5.432;2023-04-10T10:41:11;101384.31;;;14.72;53.00
74075;BME280;62428;51.412;5.432;2023-04-10T10:43:51;101386.09;;;14.76;51.69
74075;BME280;62428;51.412;5.432;2023-04-10T10:46:27;101385.78;;;14.78;54.00
74075;BME280;62428;51.412;5.432;2023-04-10T10:48:57;101378.50;;;14.78;54.16
74075;BME280;62428;51.412;5.432;2023-04-10T10:51:22;101377.25;;;14.85;54.13
74075;BME280;62428;51.412;5.432;2023-04-10T10:53:48;101368.03;;;14.86;52.35
74075;BME280;62428;51.412;5.432;2023-04-10T10:58:52;101364.47;;;14.76;51.70
74075;BME280;62428;51.412;5.432;2023-04-10T11:01:18;101363.66;;;14.76;51.88
74075;BME280;62428;51.412;5.432;2023-04-10T11:03:46;101346.75;;;14.93;52.63
74075;BME280;62428;51.412;5.432;2023-04-10T11:06:18;101341.69;;;15.23;50.37
74075;BME280;62428;51.412;5.432;2023-04-10T11:08:45;101335.94;;;15.55;50.69
74075;BME280;62428;51.412;5.432;2023-04-10T11:11:23;101345.19;;;15.63;49.28
74075;BME280;62428;51.412;5.432;2023-04-10T11:16:19;101323.13;;;15.79;49.83
74075;BME280;62428;51.412;5.432;2023-04-10T11:21:14;101337.41;;;16.54;50.61
74075;BME280;62428;51.412;5.432;2023-04-10T11:24:00;101314.44;;;16.60;48.97
74075;BME280;62428;51.412;5.432;2023-04-10T11:31:53;101307.09;;;16.34;50.43
74075;BME280;62428;51.412;5.432;2023-04-10T11:34:19;101293.53;;;16.26;47.81
74075;BME280;62428;51.412;5.432;2023-04-10T11:36:45;101288.09;;;16.17;48.28
74075;BME280;62428;51.412;5.432;2023-04-10T11:39:13;101288.28;;;16.12;50.08
74075;BME280;62428;51.412;5.432;2023-04-10T11:44:13;101271.56;;;16.10;48.75
74075;BME280;62428;51.412;5.432;2023-04-10T11:46:41;101283.97;;;16.02;48.14
74075;BME280;62428;51.412;5.432;2023-04-10T11:49:08;101269.78;;;15.97;48.19
74075;BME280;62428;51.412;5.432;2023-04-10T11:51:34;101268.03;;;15.92;49.27
74075;BME280;62428;51.412;5.432;2023-04-10T11:56:30;101263.69;;;15.82;50.30
74075;BME280;62428;51.412;5.432;2023-04-10T11:58:55;101269.94;;;15.83;50.67
74075;BME280;62428;51.412;5.432;2023-04-10T12:01:21;101259.25;;;15.86;49.31
74075;BME280;62428;51.412;5.432;2023-04-10T12:03:47;101272.78;;;15.95;50.92
74075;BME280;62428;51.412;5.432;2023-04-10T12:06:13;101262.28;;;16.02;50.55
74075;BME280;62428;51.412;5.432;2023-04-10T12:08:44;101254.47;;;16.09;49.40
74075;BME280;62428;51.412;5.432;2023-04-10T12:11:20;101245.25;;;16.10;51.34
74075;BME280;62428;51.412;5.432;2023-04-10T12:13:46;101237.91;;;16.11;50.80
74075;BME280;62428;51.412;5.432;2023-04-10T12:16:12;101231.22;;;16.08;48.81
74075;BME280;62428;51.412;5.432;2023-04-10T12:18:38;101238.06;;;16.06;50.08
74075;BME280;62428;51.412;5.432;2023-04-10T12:21:04;101236.63;;;16.00;48.42
74075;BME280;62428;51.412;5.432;2023-04-10T12:23:30;101228.81;;;15.98;50.51
74075;BME280;62428;51.412;5.432;2023-04-10T12:26:12;101221.94;;;16.01;51.22
74075;BME280;62428;51.412;5.432;2023-04-10T12:28:40;101224.34;;;16.02;49.52
74075;BME280;62428;51.412;5.432;2023-04-10T12:31:06;101217.81;;;16.03;50.25
74075;BME280;62428;51.412;5.432;2023-04-10T12:33:32;101217.50;;;16.05;49.01
74075;BME280;62428;51.412;5.432;2023-04-10T12:35:57;101213.03;;;16.09;50.02
74075;BME280;62428;51.412;5.432;2023-04-10T12:38:41;101201.22;;;16.13;49.89
74075;BME280;62428;51.412;5.432;2023-04-10T12:41:08;101209.69;;;16.12;49.75
74075;BME280;62428;51.412;5.432;2023-04-10T12:43:38;101204.13;;;16.08;49.31
74075;BME280;62428;51.412;5.432;2023-04-10T12:46:05;101203.13;;;16.04;48.81
74075;BME280;62428;51.412;5.432;2023-04-10T12:48:31;101198.22;;;15.98;49.91
74075;BME280;62428;51.412;5.432;2023-04-10T12:50:56;101193.75;;;15.93;49.45
74075;BME280;62428;51.412;5.432;2023-04-10T12:53:23;101193.59;;;15.89;48.90
74075;BME280;62428;51.412;5.432;2023-04-10T12:58:22;101194.53;;;15.76;49.26
74075;BME280;62428;51.412;5.432;2023-04-10T13:00:52;101181.44;;;15.69;51.29
74075;BME280;62428;51.412;5.432;2023-04-10T13:03:18;101177.16;;;15.68;50.37
74075;BME280;62428;51.412;5.432;2023-04-10T13:05:43;101179.38;;;15.66;49.82
74075;BME280;62428;51.412;5.432;2023-04-10T13:08:09;101181.28;;;15.66;51.97
74075;BME280;62428;51.412;5.432;2023-04-10T13:10:34;101162.00;;;15.67;49.35
74075;BME280;62428;51.412;5.432;2023-04-10T13:13:03;101160.72;;;15.65;49.70
74075;BME280;62428;51.412;5.432;2023-04-10T13:15:28;101149.09;;;15.64;49.10
74075;BME280;62428;51.412;5.432;2023-04-10T13:17:54;101148.59;;;15.62;50.69
74075;BME280;62428;51.412;5.432;2023-04-10T13:20:20;101142.41;;;15.62;49.28
74075;BME280;62428;51.412;5.432;2023-04-10T13:22:46;101138.44;;;15.59;49.10
74075;BME280;62428;51.412;5.432;2023-04-10T13:25:11;101127.13;;;15.57;50.22
74075;BME280;62428;51.412;5.432;2023-04-10T13:27:37;101125.22;;;15.57;49.71
74075;BME280;62428;51.412;5.432;2023-04-10T13:30:02;101121.72;;;15.57;50.53
74075;BME280;62428;51.412;5.432;2023-04-10T13:32:27;101122.19;;;15.59;49.81
74075;BME280;62428;51.412;5.432;2023-04-10T13:34:53;101110.53;;;15.58;50.88